createdAt,value
2018-04-07T00:01:59.384Z,99.90
2018-04-07T00:04:26.345Z,99.90
2018-04-07T00:06:52.536Z,99.90
2018-04-07T00:09:18.757Z,99.90
2018-04-07T00:11:44.955Z,99.90
2018-04-07T00:14:11.196Z,99.90
2018-04-07T00:16:37.379Z,99.90
2018-04-07T00:19:04.340Z,99.90
2018-04-07T00:21:30.537Z,99.90
2018-04-07T00:23:56.756Z,99.90
2018-04-07T00:26:22.944Z,99.90
2018-04-07T00:28:49.152Z,99.90
2018-04-07T00:31:15.404Z,99.90
2018-04-07T00:33:41.625Z,99.90
2018-04-07T00:36:07.816Z,99.90
2018-04-07T00:38:34.772Z,99.90
2018-04-07T00:41:01.710Z,99.90
2018-04-07T00:43:28.688Z,99.90
2018-04-07T00:45:54.884Z,99.90
2018-04-07T00:48:21.860Z,99.90
2018-04-07T00:50:48.168Z,99.90
2018-04-07T00:53:15.104Z,99.90
2018-04-07T00:55:42.063Z,99.90
2018-04-07T00:58:09.017Z,99.90
2018-04-07T01:00:35.261Z,99.90
2018-04-07T01:03:01.452Z,99.90
2018-04-07T01:05:27.668Z,99.90
2018-04-07T01:07:53.858Z,99.90
2018-04-07T01:10:20.083Z,99.90
2018-04-07T01:12:46.328Z,99.90
2018-04-07T01:15:12.633Z,99.90
2018-04-07T01:17:38.848Z,99.90
2018-04-07T01:20:05.808Z,99.90
2018-04-07T01:22:32.000Z,99.90
2018-04-07T01:24:59.696Z,99.90
2018-04-07T01:27:25.896Z,99.90
2018-04-07T01:29:52.848Z,99.90
2018-04-07T01:32:19.772Z,99.90
2018-04-07T01:34:45.992Z,99.90
2018-04-07T01:37:12.175Z,99.90
2018-04-07T01:39:38.411Z,99.90
2018-04-07T01:42:04.626Z,99.90
2018-04-07T01:44:30.819Z,99.90
2018-04-07T01:46:57.032Z,99.90
2018-04-07T01:49:23.219Z,99.90
2018-04-07T01:51:49.451Z,99.90
2018-04-07T01:54:15.642Z,99.90
2018-04-07T01:56:41.855Z,99.90
2018-04-07T01:59:08.112Z,99.90
2018-04-07T02:01:35.560Z,99.90
2018-04-07T02:04:01.744Z,99.90
2018-04-07T02:06:27.952Z,99.90
2018-04-07T02:08:54.203Z,99.90
2018-04-07T02:11:20.432Z,99.90
2018-04-07T02:13:46.639Z,99.90
2018-04-07T02:16:12.912Z,99.90
2018-04-07T02:18:39.108Z,99.90
2018-04-07T02:21:05.328Z,99.90
2018-04-07T02:23:31.568Z,99.90
2018-04-07T02:25:57.817Z,99.90
2018-04-07T02:28:24.005Z,99.90
2018-04-07T02:30:50.220Z,99.90
2018-04-07T02:33:17.168Z,99.90
2018-04-07T02:35:44.187Z,99.90
2018-04-07T02:38:10.376Z,99.90
2018-04-07T02:40:36.604Z,99.90
2018-04-07T02:43:02.826Z,99.90
2018-04-07T02:45:29.049Z,99.90
2018-04-07T02:47:55.248Z,99.90
2018-04-07T02:50:22.210Z,99.90
2018-04-07T02:52:48.416Z,99.90
2018-04-07T02:55:14.634Z,99.90
2018-04-07T02:57:40.832Z,99.90
2018-04-07T03:00:07.799Z,99.90
2018-04-07T03:02:35.052Z,99.90
2018-04-07T03:05:01.696Z,99.90
2018-04-07T03:07:28.202Z,99.90
2018-04-07T03:09:54.424Z,99.90
2018-04-07T03:12:20.650Z,99.90
2018-04-07T03:14:46.892Z,99.90
2018-04-07T03:17:13.151Z,99.90
2018-04-07T03:19:39.362Z,99.90
2018-04-07T03:22:05.552Z,99.90
2018-04-07T03:24:31.772Z,99.90
2018-04-07T03:26:58.704Z,99.90
2018-04-07T03:29:25.672Z,99.90
2018-04-07T03:31:51.868Z,99.90
2018-04-07T03:34:18.168Z,99.90
2018-04-07T03:36:44.356Z,99.90
2018-04-07T03:39:11.280Z,99.90
2018-04-07T03:41:37.498Z,99.90
2018-04-07T03:44:03.725Z,99.90
2018-04-07T03:46:29.940Z,99.90
2018-04-07T03:48:56.148Z,99.90
2018-04-07T03:51:22.385Z,99.90
2018-04-07T03:53:48.604Z,99.90
2018-04-07T03:56:14.796Z,99.90
2018-04-07T03:58:41.753Z,99.90
2018-04-07T04:01:07.948Z,99.90
2018-04-07T04:03:34.209Z,99.90
2018-04-07T04:06:00.421Z,99.90
2018-04-07T04:08:27.349Z,99.90
2018-04-07T04:10:54.312Z,99.90
2018-04-07T04:13:21.268Z,99.90
2018-04-07T04:15:48.220Z,99.90
2018-04-07T04:18:15.148Z,99.90
2018-04-07T04:20:42.104Z,99.90
2018-04-07T04:23:08.319Z,99.90
2018-04-07T04:25:35.282Z,99.90
2018-04-07T04:28:02.209Z,99.90
2018-04-07T04:30:28.424Z,99.90
2018-04-07T04:32:54.608Z,99.90
2018-04-07T04:35:20.821Z,99.90
2018-04-07T04:37:47.016Z,99.90
2018-04-07T04:40:13.237Z,99.90
2018-04-07T04:42:39.435Z,99.90
2018-04-07T04:45:05.633Z,99.90
2018-04-07T04:47:32.580Z,99.90
2018-04-07T04:49:59.788Z,99.90
2018-04-07T04:52:25.972Z,99.90
2018-04-07T04:54:52.166Z,99.90
2018-04-07T04:57:18.444Z,99.90
2018-04-07T04:59:44.633Z,99.90
2018-04-07T05:02:11.596Z,99.90
2018-04-07T05:04:37.797Z,99.90
2018-04-07T05:07:04.003Z,99.90
2018-04-07T05:09:30.220Z,99.90
2018-04-07T05:11:56.436Z,99.90
2018-04-07T05:14:22.649Z,99.90
2018-04-07T05:16:48.865Z,99.90
2018-04-07T05:19:15.816Z,99.90
2018-04-07T05:21:42.028Z,99.90
2018-04-07T05:24:08.988Z,99.90
2018-04-07T05:26:35.211Z,99.90
2018-04-07T05:29:02.177Z,99.90
2018-04-07T05:31:28.396Z,99.90
2018-04-07T05:33:54.627Z,99.90
2018-04-07T05:36:20.852Z,99.90
2018-04-07T05:38:47.060Z,99.90
2018-04-07T05:41:14.007Z,99.90
2018-04-07T05:43:40.965Z,99.90
2018-04-07T05:46:07.896Z,99.90
2018-04-07T05:48:34.120Z,99.90
2018-04-07T05:51:01.058Z,99.90
2018-04-07T05:53:27.275Z,99.90
2018-04-07T05:55:53.526Z,99.90
2018-04-07T05:58:20.485Z,99.90
2018-04-07T06:00:47.436Z,99.90
2018-04-07T06:03:14.410Z,99.90
2018-04-07T06:05:40.599Z,99.90
2018-04-07T06:08:07.620Z,99.90
2018-04-07T06:10:33.818Z,99.90
2018-04-07T06:13:00.029Z,99.90
2018-04-07T06:15:26.244Z,99.90
2018-04-07T06:17:53.213Z,99.90
2018-04-07T06:20:19.411Z,99.90
2018-04-07T06:22:46.523Z,99.90
2018-04-07T06:25:12.716Z,99.90
2018-04-07T06:27:38.972Z,99.90
2018-04-07T06:30:05.185Z,99.90
2018-04-07T06:32:31.377Z,99.90
2018-04-07T06:34:58.342Z,99.90
2018-04-07T06:37:24.532Z,99.90
2018-04-07T06:39:50.813Z,99.90
2018-04-07T06:42:17.005Z,99.90
2018-04-07T06:44:43.972Z,95.30
2018-04-07T06:47:10.165Z,95.30
2018-04-07T06:49:36.388Z,93.80
2018-04-07T06:52:02.583Z,93.40
2018-04-07T06:54:28.784Z,92.80
2018-04-07T06:56:54.980Z,92.70
2018-04-07T06:59:21.940Z,87.80
2018-04-07T07:01:48.892Z,87.60
2018-04-07T07:04:16.002Z,84.80
2018-04-07T07:06:42.204Z,84.80
2018-04-07T07:09:08.475Z,84.30
2018-04-07T07:11:34.704Z,82.00
2018-04-07T07:14:00.926Z,81.10
2018-04-07T07:16:27.162Z,76.90
2018-04-07T07:18:53.367Z,70.50
2018-04-07T07:21:19.608Z,68.30
2018-04-07T07:23:45.796Z,68.70
2018-04-07T07:26:12.096Z,65.10
2018-04-07T07:28:38.289Z,64.60
2018-04-07T07:31:04.525Z,66.20
2018-04-07T07:33:30.737Z,64.60
2018-04-07T07:35:56.955Z,59.90
2018-04-07T07:38:23.136Z,60.40
2018-04-07T07:40:50.148Z,58.80
2018-04-07T07:43:16.328Z,58.60
2018-04-07T07:45:43.289Z,58.00
2018-04-07T07:48:09.489Z,57.80
2018-04-07T07:50:35.710Z,60.40
2018-04-07T07:53:01.904Z,57.20
2018-04-07T07:55:28.092Z,56.90
2018-04-07T07:57:55.048Z,57.10
2018-04-07T08:00:21.231Z,57.00
2018-04-07T08:02:47.441Z,57.30
2018-04-07T08:05:13.649Z,57.50
2018-04-07T08:07:39.867Z,58.60
2018-04-07T08:10:06.053Z,58.70
2018-04-07T08:12:33.010Z,57.20
2018-04-07T08:14:59.972Z,54.90
2018-04-07T08:17:26.937Z,57.50
2018-04-07T08:19:53.121Z,57.40
2018-04-07T08:22:20.088Z,56.30
2018-04-07T08:24:47.032Z,55.70
2018-04-07T08:27:14.007Z,55.70
2018-04-07T08:29:40.237Z,55.70
2018-04-07T08:32:06.533Z,54.20
2018-04-07T08:34:32.736Z,55.80
2018-04-07T08:36:58.949Z,56.00
2018-04-07T08:39:25.180Z,55.20
2018-04-07T08:41:51.356Z,55.70
2018-04-07T08:44:18.316Z,56.80
2018-04-07T08:46:44.568Z,56.60
2018-04-07T08:49:10.788Z,54.20
2018-04-07T08:51:37.153Z,53.40
2018-04-07T08:54:03.359Z,53.90
2018-04-07T08:56:29.552Z,51.80
2018-04-07T08:58:55.805Z,51.60
2018-04-07T09:01:21.997Z,51.80
2018-04-07T09:03:48.956Z,51.10
2018-04-07T09:06:15.894Z,49.60
2018-04-07T09:08:42.857Z,49.20
2018-04-07T09:11:09.056Z,49.20
2018-04-07T09:13:35.292Z,49.90
2018-04-07T09:16:01.480Z,48.50
2018-04-07T09:18:27.692Z,46.70
2018-04-07T09:20:53.884Z,46.20
2018-04-07T09:23:20.840Z,43.50
2018-04-07T09:25:47.794Z,44.60
2018-04-07T09:28:14.013Z,44.60
2018-04-07T09:30:40.953Z,43.80
2018-04-07T09:33:07.921Z,43.30
2018-04-07T09:35:34.117Z,43.30
2018-04-07T09:38:00.860Z,42.90
2018-04-07T09:40:27.052Z,42.60
2018-04-07T09:42:53.243Z,44.30
2018-04-07T09:45:19.452Z,39.80
2018-04-07T09:47:46.388Z,40.40
2018-04-07T09:50:13.348Z,39.50
2018-04-07T09:52:40.280Z,39.10
2018-04-07T09:55:06.492Z,38.90
2018-04-07T09:57:32.700Z,39.40
2018-04-07T09:59:58.911Z,37.40
2018-04-07T10:02:25.455Z,36.20
2018-04-07T10:04:51.665Z,36.20
2018-04-07T10:07:17.873Z,36.20
2018-04-07T10:09:44.825Z,36.40
2018-04-07T10:12:11.760Z,37.90
2018-04-07T10:14:38.739Z,36.50
2018-04-07T10:17:04.932Z,36.60
2018-04-07T10:19:31.212Z,36.40
2018-04-07T10:21:57.412Z,35.80
2018-04-07T10:24:23.605Z,35.10
2018-04-07T10:26:49.820Z,36.70
2018-04-07T10:29:16.036Z,35.20
2018-04-07T10:31:42.219Z,34.30
2018-04-07T10:34:09.171Z,34.80
2018-04-07T10:36:35.740Z,34.80
2018-04-07T10:39:01.924Z,36.30
2018-04-07T10:41:28.885Z,37.50
2018-04-07T10:43:55.076Z,37.40
2018-04-07T10:46:21.288Z,39.50
2018-04-07T10:48:47.472Z,39.60
2018-04-07T10:51:13.717Z,38.50
2018-04-07T10:53:39.913Z,37.70
2018-04-07T10:56:06.873Z,37.70
2018-04-07T10:58:33.068Z,37.60
2018-04-07T11:00:59.280Z,37.30
2018-04-07T11:03:25.484Z,39.30
2018-04-07T11:05:51.696Z,37.90
2018-04-07T11:08:17.897Z,35.80
2018-04-07T11:10:44.848Z,37.20
2018-04-07T11:13:11.786Z,38.90
2018-04-07T11:15:38.764Z,37.50
2018-04-07T11:18:04.961Z,37.10
2018-04-07T11:20:31.921Z,34.90
2018-04-07T11:22:58.852Z,35.30
2018-04-07T11:25:26.076Z,36.10
2018-04-07T11:27:52.260Z,36.00
2018-04-07T11:30:18.516Z,35.60
2018-04-07T11:32:44.761Z,36.20
2018-04-07T11:35:10.974Z,36.90
2018-04-07T11:37:37.157Z,34.70
2018-04-07T11:40:04.135Z,35.20
2018-04-07T11:42:30.368Z,35.10
2018-04-07T11:44:56.557Z,34.30
2018-04-07T11:47:23.528Z,35.20
2018-04-07T11:49:49.784Z,35.20
2018-04-07T11:52:16.008Z,34.10
2018-04-07T11:54:42.199Z,34.50
2018-04-07T11:57:09.176Z,34.30
2018-04-07T11:59:35.417Z,34.30
2018-04-07T12:02:01.600Z,32.90
2018-04-07T12:04:28.586Z,34.50
2018-04-07T12:06:54.801Z,34.40
2018-04-07T12:09:21.036Z,32.70
2018-04-07T12:11:47.224Z,33.30
2018-04-07T12:14:14.249Z,33.80
2018-04-07T12:16:40.459Z,33.90
2018-04-07T12:19:06.701Z,33.00
2018-04-07T12:21:32.908Z,31.60
2018-04-07T12:23:59.176Z,32.70
2018-04-07T12:26:25.416Z,33.60
2018-04-07T12:28:51.612Z,33.70
2018-04-07T12:31:17.859Z,33.80
2018-04-07T12:33:44.053Z,33.00
2018-04-07T12:36:10.308Z,31.90
2018-04-07T12:38:36.568Z,32.10
2018-04-07T12:41:03.501Z,32.00
2018-04-07T12:43:29.744Z,31.90
2018-04-07T12:45:56.748Z,31.70
2018-04-07T12:48:22.944Z,31.70
2018-04-07T12:50:49.133Z,29.80
2018-04-07T12:53:16.910Z,30.50
2018-04-07T12:55:43.840Z,29.50
2018-04-07T12:58:10.084Z,29.40
2018-04-07T13:00:37.015Z,28.90
2018-04-07T13:03:03.244Z,28.90
2018-04-07T13:05:30.256Z,29.30
2018-04-07T13:07:56.493Z,29.20
2018-04-07T13:10:22.700Z,28.50
2018-04-07T13:12:48.969Z,28.40
2018-04-07T13:15:15.196Z,29.30
2018-04-07T13:17:41.385Z,28.90
2018-04-07T13:20:07.616Z,28.40
2018-04-07T13:22:33.873Z,27.80
2018-04-07T13:25:00.088Z,28.60
2018-04-07T13:27:26.377Z,27.40
2018-04-07T13:29:52.538Z,27.90
2018-04-07T13:32:18.772Z,27.40
2018-04-07T13:34:45.009Z,27.00
2018-04-07T13:37:11.293Z,27.60
2018-04-07T13:39:38.272Z,28.20
2018-04-07T13:42:04.464Z,28.10
2018-04-07T13:44:31.440Z,28.20
2018-04-07T13:46:57.624Z,28.10
2018-04-07T13:49:23.872Z,29.00
2018-04-07T13:51:50.872Z,28.80
2018-04-07T13:54:17.056Z,28.80
2018-04-07T13:56:44.031Z,29.20
2018-04-07T13:59:10.230Z,29.30
2018-04-07T14:01:37.214Z,29.40
2018-04-07T14:04:03.436Z,29.40
2018-04-07T14:06:29.690Z,28.80
2018-04-07T14:08:55.924Z,30.00
2018-04-07T14:11:22.156Z,31.40
2018-04-07T14:13:48.395Z,31.50
2018-04-07T14:16:14.584Z,31.70
2018-04-07T14:18:40.824Z,32.50
2018-04-07T14:21:07.024Z,32.20
2018-04-07T14:23:33.216Z,30.80
2018-04-07T14:25:59.488Z,31.40
2018-04-07T14:28:25.715Z,32.00
2018-04-07T14:30:51.897Z,31.90
2018-04-07T14:33:18.137Z,32.90
2018-04-07T14:35:44.320Z,31.90
2018-04-07T14:38:10.592Z,32.90
2018-04-07T14:40:36.776Z,31.90
2018-04-07T14:43:02.956Z,33.10
2018-04-07T14:45:29.928Z,32.80
2018-04-07T14:47:56.124Z,32.80
2018-04-07T14:50:22.367Z,33.50
2018-04-07T14:52:56.362Z,32.00
2018-04-07T14:55:22.692Z,32.00
2018-04-07T14:57:50.411Z,31.40
2018-04-07T15:00:16.632Z,31.40
2018-04-07T15:02:42.821Z,32.60
2018-04-07T15:05:09.801Z,34.40
2018-04-07T15:07:35.980Z,34.40
2018-04-07T15:10:02.743Z,33.50
2018-04-07T15:12:29.673Z,33.80
2018-04-07T15:14:55.864Z,33.70
2018-04-07T15:17:22.112Z,34.20
2018-04-07T15:19:48.381Z,34.20
2018-04-07T15:22:15.352Z,34.70
2018-04-07T15:24:41.588Z,34.70
2018-04-07T15:27:07.840Z,35.00
2018-04-07T15:29:34.084Z,34.80
2018-04-07T15:32:00.311Z,36.30
2018-04-07T15:34:26.556Z,36.30
2018-04-07T15:36:52.740Z,35.70
2018-04-07T15:39:18.926Z,35.00
2018-04-07T15:41:45.901Z,36.30
2018-04-07T15:44:12.146Z,36.20
2018-04-07T15:46:38.339Z,36.60
2018-04-07T15:49:05.317Z,36.20
2018-04-07T15:51:31.514Z,36.20
2018-04-07T15:53:58.492Z,38.00
2018-04-07T15:56:24.783Z,38.00
2018-04-07T15:58:51.077Z,37.00
2018-04-07T16:01:17.291Z,37.60
2018-04-07T16:03:43.471Z,38.10
2018-04-07T16:06:10.472Z,36.70
2018-04-07T16:08:36.680Z,36.80
2018-04-07T16:11:02.964Z,37.00
2018-04-07T16:13:29.148Z,37.20
2018-04-07T16:15:55.345Z,38.00
2018-04-07T16:18:22.383Z,38.50
2018-04-07T16:20:49.316Z,38.40
2018-04-07T16:23:15.551Z,38.40
2018-04-07T16:25:42.485Z,39.20
2018-04-07T16:28:08.725Z,38.90
2018-04-07T16:30:35.720Z,39.70
2018-04-07T16:33:01.984Z,39.70
2018-04-07T16:35:28.179Z,39.20
2018-04-07T16:37:54.388Z,39.20
2018-04-07T16:40:20.624Z,39.70
2018-04-07T16:42:46.868Z,40.40
2018-04-07T16:45:13.118Z,40.50
2018-04-07T16:47:39.320Z,41.30
2018-04-07T16:50:05.580Z,41.80
2018-04-07T16:52:31.885Z,42.40
2018-04-07T16:54:58.129Z,42.10
2018-04-07T16:57:24.386Z,42.50
2018-04-07T16:59:50.581Z,42.90
2018-04-07T17:02:16.825Z,43.60
2018-04-07T17:04:43.072Z,43.30
2018-04-07T17:07:10.001Z,43.90
2018-04-07T17:09:36.189Z,43.90
2018-04-07T17:12:02.547Z,44.20
2018-04-07T17:14:28.691Z,44.30
2018-04-07T17:16:54.945Z,44.80
2018-04-07T17:19:21.185Z,45.10
2018-04-07T17:21:48.173Z,46.10
2018-04-07T17:24:14.411Z,46.10
2018-04-07T17:26:40.640Z,46.40
2018-04-07T17:29:06.885Z,46.50
2018-04-07T17:31:33.124Z,46.80
2018-04-07T17:34:00.056Z,47.00
2018-04-07T17:36:26.259Z,47.00
2018-04-07T17:38:52.492Z,47.20
2018-04-07T17:41:18.684Z,47.60
2018-04-07T17:43:45.651Z,47.60
2018-04-07T17:46:11.860Z,47.60
2018-04-07T17:48:38.842Z,48.10
2018-04-07T17:51:05.029Z,48.10
2018-04-07T17:53:31.993Z,48.70
2018-04-07T17:55:58.205Z,48.70
2018-04-07T17:58:25.148Z,49.80
2018-04-07T18:00:52.105Z,50.20
2018-04-07T18:03:19.036Z,50.70
2018-04-07T18:05:45.989Z,51.10
2018-04-07T18:08:12.212Z,51.10
2018-04-07T18:10:39.564Z,52.20
2018-04-07T18:13:06.561Z,52.60
2018-04-07T18:15:33.095Z,52.60
2018-04-07T18:17:59.279Z,53.40
2018-04-07T18:20:26.237Z,54.70
2018-04-07T18:22:52.424Z,54.70
2018-04-07T18:25:18.649Z,55.20
2018-04-07T18:27:44.840Z,55.70
2018-04-07T18:30:11.069Z,56.10
2018-04-07T18:32:37.263Z,56.40
2018-04-07T18:35:03.452Z,56.90
2018-04-07T18:37:29.676Z,57.20
2018-04-07T18:39:55.900Z,56.60
2018-04-07T18:42:22.087Z,56.40
2018-04-07T18:44:56.063Z,56.20
2018-04-07T18:47:22.280Z,56.20
2018-04-07T18:49:48.460Z,55.90
2018-04-07T18:52:15.412Z,56.20
2018-04-07T18:54:41.648Z,56.10
2018-04-07T18:57:07.840Z,56.10
2018-04-07T18:59:35.512Z,56.80
2018-04-07T19:02:02.492Z,57.80
2018-04-07T19:04:28.683Z,57.20
2018-04-07T19:06:54.920Z,57.70
2018-04-07T19:09:21.868Z,57.40
2018-04-07T19:11:49.164Z,57.00
2018-04-07T19:14:15.408Z,56.90
2018-04-07T19:16:41.625Z,57.00
2018-04-07T19:19:07.820Z,57.60
2018-04-07T19:21:34.777Z,58.20
2018-04-07T19:24:02.602Z,58.50
2018-04-07T19:26:28.819Z,58.40
2018-04-07T19:28:55.013Z,58.80
2018-04-07T19:31:21.248Z,59.20
2018-04-07T19:33:47.440Z,59.40
2018-04-07T19:36:14.500Z,59.70
2018-04-07T19:38:41.448Z,60.10
2018-04-07T19:41:07.708Z,60.10
2018-04-07T19:43:33.953Z,61.30
2018-04-07T19:46:00.148Z,62.40
2018-04-07T19:48:26.352Z,63.40
2018-04-07T19:50:53.288Z,65.70
2018-04-07T19:53:20.248Z,67.30
2018-04-07T19:55:47.176Z,68.90
2018-04-07T19:58:14.129Z,69.80
2018-04-07T20:00:41.060Z,70.60
2018-04-07T20:03:07.276Z,70.50
2018-04-07T20:05:33.460Z,70.90
2018-04-07T20:07:59.680Z,71.80
2018-04-07T20:10:25.867Z,72.70
2018-04-07T20:12:52.084Z,74.00
2018-04-07T20:15:18.309Z,74.30
2018-04-07T20:17:44.503Z,75.00
2018-04-07T20:20:10.721Z,75.50
2018-04-07T20:22:37.673Z,77.30
2018-04-07T20:25:03.889Z,77.40
2018-04-07T20:27:30.816Z,79.40
2018-04-07T20:29:57.040Z,79.40
2018-04-07T20:32:23.227Z,80.40
2018-04-07T20:34:49.439Z,81.40
2018-04-07T20:37:15.624Z,82.40
2018-04-07T20:39:43.317Z,83.90
2018-04-07T20:42:23.092Z,84.50
2018-04-07T20:44:49.308Z,84.50
2018-04-07T20:47:15.496Z,84.90
2018-04-07T20:49:41.745Z,86.10
2018-04-07T20:52:08.681Z,88.60
2018-04-07T20:54:35.706Z,89.70
2018-04-07T20:57:01.900Z,89.80
2018-04-07T20:59:28.120Z,90.20
2018-04-07T21:01:54.312Z,90.50
2018-04-07T21:04:21.272Z,90.80
2018-04-07T21:06:48.276Z,90.70
2018-04-07T21:09:14.493Z,90.70
2018-04-07T21:11:40.680Z,91.00
2018-04-07T21:14:06.923Z,91.20
2018-04-07T21:16:33.113Z,91.50
2018-04-07T21:19:06.973Z,92.30
2018-04-07T21:21:33.872Z,92.50
2018-04-07T21:24:00.094Z,92.60
2018-04-07T21:26:27.036Z,94.00
2018-04-07T21:28:53.988Z,94.70
2018-04-07T21:31:20.936Z,95.30
2018-04-07T21:33:47.960Z,96.10
2018-04-07T21:36:14.156Z,96.10
2018-04-07T21:38:40.378Z,97.10
2018-04-07T21:41:06.627Z,98.00
2018-04-07T21:43:32.829Z,99.00
2018-04-07T21:45:59.029Z,99.70
2018-04-07T21:48:25.245Z,99.90
2018-04-07T21:50:51.445Z,99.90
2018-04-07T21:53:17.681Z,99.90
2018-04-07T21:55:43.876Z,99.90
2018-04-07T21:58:10.092Z,99.90
2018-04-07T22:00:36.292Z,99.90
2018-04-07T22:03:03.994Z,99.90
2018-04-07T22:05:30.180Z,99.90
2018-04-07T22:07:56.395Z,99.90
2018-04-07T22:10:22.604Z,99.90
2018-04-07T22:12:48.811Z,99.90
2018-04-07T22:15:15.066Z,99.90
2018-04-07T22:17:41.280Z,99.90
2018-04-07T22:20:07.513Z,99.90
2018-04-07T22:22:33.720Z,99.90
2018-04-07T22:24:59.956Z,99.90
2018-04-07T22:27:26.199Z,99.90
2018-04-07T22:29:52.415Z,99.90
2018-04-07T22:32:18.597Z,99.90
2018-04-07T22:34:44.813Z,99.90
2018-04-07T22:37:11.013Z,99.90
2018-04-07T22:39:37.227Z,99.90
2018-04-07T22:42:03.434Z,99.90
2018-04-07T22:44:30.395Z,99.90
2018-04-07T22:46:56.588Z,99.90
2018-04-07T22:49:22.805Z,99.90
2018-04-07T22:51:48.996Z,99.90
2018-04-07T22:54:15.272Z,99.90
2018-04-07T22:56:41.467Z,99.90
2018-04-07T22:59:07.677Z,99.90
2018-04-07T23:01:33.929Z,99.90
2018-04-07T23:04:00.151Z,99.90
2018-04-07T23:06:26.409Z,99.90
2018-04-07T23:08:52.595Z,99.90
2018-04-07T23:11:18.808Z,99.90
2018-04-07T23:13:45.756Z,99.90
2018-04-07T23:16:12.716Z,99.90
2018-04-07T23:18:38.919Z,99.90
2018-04-07T23:21:05.882Z,99.90
2018-04-07T23:23:32.077Z,99.90
2018-04-07T23:25:58.296Z,99.90
2018-04-07T23:28:24.483Z,99.90
2018-04-07T23:30:50.701Z,99.90
2018-04-07T23:33:16.912Z,99.90
2018-04-07T23:35:43.155Z,99.90
2018-04-07T23:38:09.350Z,99.90
2018-04-07T23:40:35.582Z,99.90
2018-04-07T23:43:01.766Z,99.90
2018-04-07T23:45:27.972Z,99.90
2018-04-07T23:47:54.155Z,99.90
2018-04-07T23:50:20.366Z,99.90
2018-04-07T23:52:46.556Z,99.90
2018-04-07T23:55:12.779Z,99.90
2018-04-07T23:57:39.712Z,99.90
